Relatórios de METAR próximas

 

LPAR - Alverca, Portugal
Distance from station: S 38km
Actualizado: 14/08/2019 21:00
NÃO Actual
Few Clouds
Few Clouds
 Vento de N
Vento: N 17 km/h
Temperatura: 23°C
Ponto de Orvalho: 17°C
Humidade: 69%
Barómetro: 1019 hPa
Nuvens: Few Clouds
Visibilidade: 10 km
Cloud details: Few Clouds 457 m
2019/08/14 20:00 LPAR 142000Z 35009KT 9999 FEW015 23/17 Q1019
LPPT - Lisbon/Portela, Portugal
Distance from station: S 52km
Actualizado: 19/08/2019 06:00
Few Clouds
Few Clouds
 Vento de N
Vento: N 19 km/h
Temperatura: 16°C
Ponto de Orvalho: 14°C
Humidade: 88%
Barómetro: 1017 hPa
Nuvens: Few Clouds
Visibilidade: 10 km
Cloud details: Few Clouds 488 m
2019/08/19 05:00 LPPT 190500Z 35010KT 9999 FEW016 16/14 Q1017
 
LPST - Sintra/Granja (a, Portugal
Distance from station: SSO 53km
Actualizado: 15/08/2019 14:00
NÃO Actual
Céu Limpo
Céu Limpo
 Vento de NNO
Vento: NNO 20 km/h
Temperatura: 28°C
Índice de Calor: 28°C
Ponto de Orvalho: 14°C
Humidade: 42%
Barómetro: 1020 hPa
Resumo: Céu Limpo
Visibilidade: greater than 10 km
2019/08/15 13:00 LPST 151300Z 33011KT 310V010 CAVOK 28/14 Q1020
LPMT - Montijo (por-Afb, Portugal
Distance from station: S 59km
Actualizado: 19/08/2019 06:00
Few Clouds
Few Clouds
 Vento de N
Vento: N 17 km/h
Temperatura: 17°C
Ponto de Orvalho: 14°C
Humidade: 83%
Barómetro: 1017 hPa
Nuvens: Few Clouds
Visibilidade: 10 km
Cloud details: Few Clouds 610 m
2019/08/19 05:00 LPMT 190500Z 35009KT 9999 FEW020 17/14 Q1017
 
LPCS - Cascais, Portugal
Distance from station: SSO 63km
Actualizado: 18/08/2019 21:30
NÃO Actual
Céu Limpo
Céu Limpo
 Vento de N
Vento: N 28 km/h
Temperatura: 19°C
Ponto de Orvalho: 14°C
Humidade: 73%
Barómetro: 1017 hPa
Resumo: Céu Limpo
Visibilidade: greater than 10 km
2019/08/18 20:30 LPCS 182030Z 35015KT CAVOK 19/14 Q1017
LPMR - Monte Real(Por-A, Portugal
Distance from station: N 67km
Actualizado: 19/08/2019 06:00
Few Clouds
Few Clouds
 Vento de NNO
Vento: NNO 15 km/h
Temperatura: 16°C
Ponto de Orvalho: 14°C
Humidade: 88%
Barómetro: 1017 hPa
Nuvens: Few Clouds
Visibilidade: 10 km
Cloud details: Few Clouds 1219 m
2019/08/19 05:00 LPMR 190500Z 34008KT 9999 FEW040 16/14 Q1017